createdAt,value
2017-09-24T00:00:07.368Z,99465.09
2017-09-24T00:02:34.825Z,99468.14
2017-09-24T00:05:02.325Z,99464.16
2017-09-24T00:07:29.833Z,99466.02
2017-09-24T00:09:57.293Z,99464.17
2017-09-24T00:12:24.769Z,99454.76
2017-09-24T00:14:52.236Z,99457.80
2017-09-24T00:17:19.739Z,99450.37
2017-09-24T00:19:47.194Z,99456.02
2017-09-24T00:22:14.722Z,99458.83
2017-09-24T00:24:42.237Z,99457.61
2017-09-24T00:27:09.733Z,99458.00
2017-09-24T00:29:37.210Z,99457.83
2017-09-24T00:32:04.673Z,99457.27
2017-09-24T00:34:32.206Z,99455.59
2017-09-24T00:36:59.677Z,99457.67
2017-09-24T00:39:27.174Z,99452.37
2017-09-24T00:41:54.620Z,99450.52
2017-09-24T00:44:22.102Z,99451.22
2017-09-24T00:46:49.557Z,99454.42
2017-09-24T00:49:17.167Z,99457.02
2017-09-24T00:51:44.637Z,99455.54
2017-09-24T00:54:12.113Z,99450.64
2017-09-24T00:56:39.617Z,99453.70
2017-09-24T00:59:07.101Z,99453.81
2017-09-24T01:01:34.745Z,99454.95
2017-09-24T01:04:02.218Z,99456.35
2017-09-24T01:06:29.677Z,99454.25
2017-09-24T01:08:57.164Z,99448.84
2017-09-24T01:11:24.626Z,99448.99
2017-09-24T01:13:52.162Z,99443.33
2017-09-24T01:16:19.645Z,99439.99
2017-09-24T01:18:47.135Z,99441.95
2017-09-24T01:21:14.588Z,99419.92
2017-09-24T01:23:42.422Z,99443.90
2017-09-24T01:26:09.877Z,99438.97
2017-09-24T01:28:37.378Z,99442.09
2017-09-24T01:31:04.862Z,99440.20
2017-09-24T01:33:32.697Z,99445.73
2017-09-24T01:36:00.150Z,99444.06
2017-09-24T01:38:27.612Z,99441.67
2017-09-24T01:40:55.453Z,99439.98
2017-09-24T01:43:22.938Z,99439.41
2017-09-24T01:45:50.397Z,99448.90
2017-09-24T01:48:17.897Z,99443.47
2017-09-24T01:50:45.350Z,99441.95
2017-09-24T01:53:12.857Z,99449.59
2017-09-24T01:55:40.392Z,99451.61
2017-09-24T01:58:07.862Z,99449.69
2017-09-24T02:00:35.373Z,99447.84
2017-09-24T02:03:02.837Z,99449.30
2017-09-24T02:05:30.323Z,99445.34
2017-09-24T02:07:57.778Z,99439.67
2017-09-24T02:10:25.262Z,99445.94
2017-09-24T02:12:52.720Z,99447.75
2017-09-24T02:15:20.334Z,99445.80
2017-09-24T02:17:47.833Z,99444.87
2017-09-24T02:20:15.353Z,99440.94
2017-09-24T02:22:43.721Z,99444.57
2017-09-24T02:25:11.318Z,99445.33
2017-09-24T02:27:38.793Z,99448.78
2017-09-24T02:30:06.301Z,99451.84
2017-09-24T02:32:33.797Z,99447.17
2017-09-24T02:35:01.270Z,99451.06
2017-09-24T02:37:28.781Z,99450.69
2017-09-24T02:39:57.011Z,99451.09
2017-09-24T02:42:24.514Z,99449.04
2017-09-24T02:44:52.012Z,99451.58
2017-09-24T02:47:19.480Z,99445.33
2017-09-24T02:49:46.966Z,99441.38
2017-09-24T02:52:14.433Z,99450.64
2017-09-24T02:54:41.938Z,99458.00
2017-09-24T02:57:09.414Z,99449.34
2017-09-24T02:59:36.932Z,99451.87
2017-09-24T03:02:04.412Z,99454.91
2017-09-24T03:04:31.902Z,99447.09
2017-09-24T03:06:59.354Z,99449.16
2017-09-24T03:09:26.869Z,99448.73
2017-09-24T03:11:54.375Z,99452.86
2017-09-24T03:14:21.828Z,99452.72
2017-09-24T03:16:49.319Z,99453.47
2017-09-24T03:19:16.786Z,99455.22
2017-09-24T03:21:44.303Z,99449.12
2017-09-24T03:24:11.807Z,99445.56
2017-09-24T03:26:39.260Z,99447.66
2017-09-24T03:29:06.753Z,99446.63
2017-09-24T03:31:34.221Z,99447.61
2017-09-24T03:34:01.731Z,99444.91
2017-09-24T03:36:29.199Z,99443.19
2017-09-24T03:38:56.692Z,99443.39
2017-09-24T03:41:24.171Z,99439.96
2017-09-24T03:43:51.660Z,99449.88
2017-09-24T03:46:19.148Z,99444.43
2017-09-24T03:48:46.610Z,99440.17
2017-09-24T03:51:14.085Z,99439.05
2017-09-24T03:53:41.567Z,99440.17
2017-09-24T03:56:09.077Z,99440.20
2017-09-24T03:58:36.540Z,99444.03
2017-09-24T04:01:04.062Z,99441.14
2017-09-24T04:03:31.539Z,99444.05
2017-09-24T04:05:59.021Z,99441.06
2017-09-24T04:08:26.517Z,99447.88
2017-09-24T04:10:54.010Z,99445.74
2017-09-24T04:13:21.570Z,99448.67
2017-09-24T04:15:49.032Z,99446.20
2017-09-24T04:18:16.532Z,99448.05
2017-09-24T04:20:44.005Z,99449.27
2017-09-24T04:23:11.510Z,99452.20
2017-09-24T04:25:39.025Z,99458.41
2017-09-24T04:28:06.557Z,99454.47
2017-09-24T04:30:34.022Z,99455.05
2017-09-24T04:33:01.518Z,99457.14
2017-09-24T04:35:28.988Z,99457.20
2017-09-24T04:37:56.670Z,99458.38
2017-09-24T04:40:24.141Z,99457.00
2017-09-24T04:42:51.962Z,99465.16
2017-09-24T04:45:19.423Z,99464.27
2017-09-24T04:47:46.887Z,99471.69
2017-09-24T04:50:14.383Z,99475.36
2017-09-24T04:52:41.866Z,99480.56
2017-09-24T04:55:09.356Z,99478.84
2017-09-24T04:57:36.826Z,99481.00
2017-09-24T05:00:04.477Z,99480.17
2017-09-24T05:02:31.954Z,99474.87
2017-09-24T05:04:59.433Z,99477.79
2017-09-24T05:07:27.077Z,99476.11
2017-09-24T05:09:54.533Z,99470.16
2017-09-24T05:12:21.989Z,99477.89
2017-09-24T05:14:49.488Z,99469.98
2017-09-24T05:17:16.969Z,99477.51
2017-09-24T05:19:44.450Z,99474.16
2017-09-24T05:22:11.966Z,99477.05
2017-09-24T05:24:39.438Z,99486.67
2017-09-24T05:27:07.032Z,99478.83
2017-09-24T05:29:34.526Z,99484.88
2017-09-24T05:32:02.009Z,99491.70
2017-09-24T05:34:29.491Z,99486.30
2017-09-24T05:36:56.948Z,99492.86
2017-09-24T05:39:24.487Z,99493.14
2017-09-24T05:41:51.959Z,99488.41
2017-09-24T05:44:19.421Z,99486.22
2017-09-24T05:46:46.946Z,99489.09
2017-09-24T05:49:14.417Z,99487.28
2017-09-24T05:51:41.926Z,99498.34
2017-09-24T05:54:09.392Z,99497.53
2017-09-24T05:56:36.891Z,99496.61
2017-09-24T05:59:04.428Z,99498.55
2017-09-24T06:01:31.905Z,99497.59
2017-09-24T06:03:59.401Z,99497.14
2017-09-24T06:06:26.900Z,99502.45
2017-09-24T06:08:54.414Z,99504.15
2017-09-24T06:11:21.877Z,99507.11
2017-09-24T06:13:49.381Z,99500.83
2017-09-24T06:16:16.866Z,99509.02
2017-09-24T06:18:44.347Z,99503.75
2017-09-24T06:21:11.809Z,99505.97
2017-09-24T06:23:39.366Z,99511.71
2017-09-24T06:26:06.874Z,99511.08
2017-09-24T06:28:34.354Z,99510.30
2017-09-24T06:31:01.850Z,99507.00
2017-09-24T06:33:29.333Z,99502.95
2017-09-24T06:35:56.825Z,99507.06
2017-09-24T06:38:24.312Z,99504.64
2017-09-24T06:40:51.831Z,99504.76
2017-09-24T06:43:19.296Z,99506.66
2017-09-24T06:45:47.026Z,99508.84
2017-09-24T06:48:14.517Z,99515.82
2017-09-24T06:50:41.997Z,99521.14
2017-09-24T06:53:09.522Z,99520.19
2017-09-24T06:55:37.014Z,99526.16
2017-09-24T06:58:04.536Z,99524.30
2017-09-24T07:00:32.028Z,99530.84
2017-09-24T07:02:59.655Z,99532.78
2017-09-24T07:05:27.128Z,99535.36
2017-09-24T07:07:54.598Z,99536.34
2017-09-24T07:10:22.130Z,99538.44
2017-09-24T07:12:49.580Z,99538.31
2017-09-24T07:15:17.097Z,99535.14
2017-09-24T07:17:44.634Z,99549.41
2017-09-24T07:20:12.186Z,99550.69
2017-09-24T07:22:39.658Z,99550.75
2017-09-24T07:25:07.198Z,99550.00
2017-09-24T07:27:34.721Z,99554.27
2017-09-24T07:30:02.220Z,99545.68
2017-09-24T07:32:29.766Z,99558.94
2017-09-24T07:34:57.229Z,99555.65
2017-09-24T07:37:24.749Z,99550.22
2017-09-24T07:39:52.235Z,99556.20
2017-09-24T07:42:19.762Z,99551.01
2017-09-24T07:44:47.571Z,99544.67
2017-09-24T07:47:15.068Z,99547.65
2017-09-24T07:49:42.540Z,99548.22
2017-09-24T07:52:10.021Z,99546.37
2017-09-24T07:54:37.535Z,99543.86
2017-09-24T07:57:05.013Z,99551.16
2017-09-24T07:59:32.529Z,99547.73
2017-09-24T08:02:00.035Z,99551.30
2017-09-24T08:04:27.537Z,99556.52
2017-09-24T08:06:55.091Z,99556.81
2017-09-24T08:09:22.577Z,99553.30
2017-09-24T08:11:50.140Z,99560.38
2017-09-24T08:14:17.657Z,99566.23
2017-09-24T08:16:45.162Z,99561.49
2017-09-24T08:19:12.620Z,99556.98
2017-09-24T08:21:40.138Z,99562.02
2017-09-24T08:24:07.611Z,99555.68
2017-09-24T08:26:35.130Z,99557.42
2017-09-24T08:29:02.679Z,99556.23
2017-09-24T08:31:30.218Z,99553.58
2017-09-24T08:33:57.718Z,99563.67
2017-09-24T08:36:25.198Z,99566.72
2017-09-24T08:38:52.796Z,99561.67
2017-09-24T08:41:20.286Z,99564.73
2017-09-24T08:43:47.805Z,99554.61
2017-09-24T08:46:15.322Z,99562.95
2017-09-24T08:48:42.810Z,99562.94
2017-09-24T08:51:10.307Z,99556.61
2017-09-24T08:53:37.760Z,99560.44
2017-09-24T08:56:05.246Z,99558.73
2017-09-24T08:58:32.742Z,99558.19
2017-09-24T09:01:00.229Z,99555.22
2017-09-24T09:03:27.733Z,99555.98
2017-09-24T09:05:55.189Z,99551.66
2017-09-24T09:08:22.688Z,99548.72
2017-09-24T09:10:50.160Z,99552.77
2017-09-24T09:13:17.661Z,99549.80
2017-09-24T09:15:45.125Z,99546.56
2017-09-24T09:18:12.583Z,99547.08
2017-09-24T09:20:40.084Z,99553.51
2017-09-24T09:23:07.550Z,99557.26
2017-09-24T09:25:35.063Z,99555.81
2017-09-24T09:28:02.522Z,99551.04
2017-09-24T09:30:30.004Z,99547.49
2017-09-24T09:33:09.165Z,99551.40
2017-09-24T09:35:36.693Z,99553.98
2017-09-24T09:38:04.174Z,99547.97
2017-09-24T09:40:32.008Z,99549.19
2017-09-24T09:42:59.533Z,99546.23
2017-09-24T09:45:38.802Z,99545.88
2017-09-24T09:48:06.284Z,99541.62
2017-09-24T09:50:33.757Z,99539.70
2017-09-24T09:53:01.373Z,99539.94
2017-09-24T09:55:28.873Z,99530.87
2017-09-24T09:57:56.861Z,99526.06
2017-09-24T10:00:24.353Z,99527.48
2017-09-24T10:02:52.056Z,99528.67
2017-09-24T10:05:19.541Z,99523.16
2017-09-24T10:07:58.717Z,99523.04
2017-09-24T10:10:26.185Z,99517.27
2017-09-24T10:12:53.676Z,99519.02
2017-09-24T10:15:21.179Z,99518.81
2017-09-24T10:17:48.690Z,99515.50
2017-09-24T10:20:16.203Z,99487.56
2017-09-24T10:22:43.659Z,99495.48
2017-09-24T10:25:11.159Z,99508.31
2017-09-24T10:27:38.664Z,99511.04
2017-09-24T10:30:17.837Z,99501.53
2017-09-24T10:32:45.299Z,99509.92
2017-09-24T10:35:12.769Z,99504.57
2017-09-24T10:37:40.267Z,99510.07
2017-09-24T10:40:07.752Z,99505.48
2017-09-24T10:42:35.464Z,99504.28
2017-09-24T10:45:02.966Z,99498.44
2017-09-24T10:47:30.454Z,99492.58
2017-09-24T10:49:57.950Z,99491.84
2017-09-24T10:52:25.470Z,99498.27
2017-09-24T10:54:52.950Z,99487.71
2017-09-24T10:57:20.434Z,99483.24
2017-09-24T10:59:47.987Z,99494.69
2017-09-24T11:02:15.499Z,99487.33
2017-09-24T11:04:43.013Z,99483.22
2017-09-24T11:07:10.498Z,99484.50
2017-09-24T11:09:37.989Z,99495.81
2017-09-24T11:12:05.461Z,99489.08
2017-09-24T11:14:32.951Z,99481.02
2017-09-24T11:17:00.504Z,99481.73
2017-09-24T11:19:28.099Z,99478.81
2017-09-24T11:21:55.603Z,99480.29
2017-09-24T11:24:23.095Z,99478.13
2017-09-24T11:26:50.591Z,99471.14
2017-09-24T11:29:18.878Z,99477.03
2017-09-24T11:31:46.366Z,99475.80
2017-09-24T11:34:13.848Z,99475.32
2017-09-24T11:36:41.337Z,99474.22
2017-09-24T11:39:08.830Z,99471.63
2017-09-24T11:41:36.305Z,99473.97
2017-09-24T11:44:08.226Z,99473.66
2017-09-24T11:46:35.722Z,99478.23
2017-09-24T11:49:03.225Z,99474.38
2017-09-24T11:51:30.685Z,99471.09
2017-09-24T11:53:58.177Z,99473.14
2017-09-24T11:56:26.429Z,99471.05
2017-09-24T11:58:53.925Z,99477.27
2017-09-24T12:01:21.397Z,99482.86
2017-09-24T12:03:48.891Z,99479.34
2017-09-24T12:06:16.426Z,99475.49
2017-09-24T12:08:43.898Z,99478.70
2017-09-24T12:11:11.444Z,99476.02
2017-09-24T12:13:38.919Z,99475.00
2017-09-24T12:16:06.438Z,99475.48
2017-09-24T12:18:33.933Z,99471.74
2017-09-24T12:21:01.421Z,99476.34
2017-09-24T12:23:28.884Z,99479.58
2017-09-24T12:25:56.376Z,99483.06
2017-09-24T12:28:23.869Z,99482.89
2017-09-24T12:30:51.358Z,99484.02
2017-09-24T12:33:18.840Z,99487.58
2017-09-24T12:35:46.347Z,99487.41
2017-09-24T12:38:13.821Z,99463.96
2017-09-24T12:40:41.316Z,99478.94
2017-09-24T12:43:09.022Z,99477.14
2017-09-24T12:45:36.529Z,99468.48
2017-09-24T12:48:04.042Z,99479.78
2017-09-24T12:50:31.526Z,99468.77
2017-09-24T12:52:59.020Z,99461.57
2017-09-24T12:55:26.511Z,99458.41
2017-09-24T12:57:53.998Z,99456.27
2017-09-24T13:00:21.481Z,99455.00
2017-09-24T13:02:48.987Z,99455.56
2017-09-24T13:05:16.477Z,99454.22
2017-09-24T13:07:43.986Z,99453.66
2017-09-24T13:10:11.476Z,99448.11
2017-09-24T13:12:38.977Z,99450.12
2017-09-24T13:15:06.522Z,99446.45
2017-09-24T13:17:34.439Z,99446.70
2017-09-24T13:20:01.922Z,99443.69
2017-09-24T13:22:29.418Z,99443.23
2017-09-24T13:24:56.954Z,99449.07
2017-09-24T13:27:24.427Z,99442.29
2017-09-24T13:29:52.873Z,99449.38
2017-09-24T13:32:20.336Z,99451.24
2017-09-24T13:34:48.548Z,99448.60
2017-09-24T13:37:16.010Z,99450.72
2017-09-24T13:39:43.485Z,99448.66
2017-09-24T13:42:10.988Z,99458.52
2017-09-24T13:44:38.462Z,99447.80
2017-09-24T13:47:05.974Z,99451.19
2017-09-24T13:49:33.748Z,99451.35
2017-09-24T13:52:01.269Z,99449.04
2017-09-24T13:54:28.765Z,99452.84
2017-09-24T13:56:56.236Z,99452.74
2017-09-24T13:59:23.737Z,99448.73
2017-09-24T14:01:51.216Z,99435.78
2017-09-24T14:04:18.713Z,99454.92
2017-09-24T14:06:46.172Z,99449.78
2017-09-24T14:09:13.661Z,99447.34
2017-09-24T14:11:41.147Z,99450.43
2017-09-24T14:14:08.649Z,99452.17
2017-09-24T14:16:36.145Z,99453.73
2017-09-24T14:19:03.822Z,99452.64
2017-09-24T14:21:31.289Z,99451.59
2017-09-24T14:23:58.787Z,99449.78
2017-09-24T14:26:26.261Z,99450.83
2017-09-24T14:28:53.824Z,99449.01
2017-09-24T14:31:21.354Z,99439.22
2017-09-24T14:33:48.829Z,99454.53
2017-09-24T14:36:16.318Z,99449.23
2017-09-24T14:38:43.788Z,99454.13
2017-09-24T14:41:11.384Z,99447.64
2017-09-24T14:43:38.847Z,99447.49
2017-09-24T14:46:06.363Z,99448.42
2017-09-24T14:48:33.827Z,99442.37
2017-09-24T14:51:01.336Z,99440.23
2017-09-24T14:53:28.841Z,99439.91
2017-09-24T14:55:56.335Z,99433.99
2017-09-24T14:58:23.806Z,99429.56
2017-09-24T15:00:51.339Z,99429.16
2017-09-24T15:03:18.832Z,99429.95
2017-09-24T15:05:46.322Z,99433.03
2017-09-24T15:08:13.822Z,99427.91
2017-09-24T15:10:41.314Z,99421.73
2017-09-24T15:13:08.821Z,99427.59
2017-09-24T15:15:36.294Z,99433.42
2017-09-24T15:18:03.786Z,99433.75
2017-09-24T15:20:31.305Z,99435.87
2017-09-24T15:22:58.792Z,99432.64
2017-09-24T15:25:27.108Z,99431.23
2017-09-24T15:27:54.601Z,99435.39
2017-09-24T15:30:22.107Z,99431.70
2017-09-24T15:32:49.680Z,99438.49
2017-09-24T15:35:17.138Z,99432.33
2017-09-24T15:37:44.625Z,99438.72
2017-09-24T15:40:12.233Z,99441.64
2017-09-24T15:42:39.714Z,99437.67
2017-09-24T15:45:07.228Z,99436.31
2017-09-24T15:47:34.819Z,99438.61
2017-09-24T15:50:02.328Z,99443.11
2017-09-24T15:52:29.808Z,99441.08
2017-09-24T15:54:57.285Z,99437.91
2017-09-24T15:57:24.800Z,99442.41
2017-09-24T15:59:52.267Z,99436.31
2017-09-24T16:02:19.782Z,99448.86
2017-09-24T16:04:47.293Z,99450.56
2017-09-24T16:07:14.773Z,99450.77
2017-09-24T16:09:42.309Z,99452.66
2017-09-24T16:12:09.893Z,99442.94
2017-09-24T16:14:37.383Z,99449.79
2017-09-24T16:17:04.849Z,99454.92
2017-09-24T16:19:32.350Z,99453.37
2017-09-24T16:21:59.852Z,99456.34
2017-09-24T16:24:27.325Z,99462.29
2017-09-24T16:26:55.241Z,99465.41
2017-09-24T16:29:22.722Z,99461.72
2017-09-24T16:31:50.205Z,99462.69
2017-09-24T16:34:17.693Z,99469.08
2017-09-24T16:36:45.164Z,99464.97
2017-09-24T16:39:12.681Z,99462.23
2017-09-24T16:41:40.146Z,99463.31
2017-09-24T16:44:07.634Z,99459.98
2017-09-24T16:46:35.127Z,99464.52
2017-09-24T16:49:02.621Z,99460.88
2017-09-24T16:51:30.105Z,99464.61
2017-09-24T16:53:57.599Z,99465.94
2017-09-24T16:56:25.088Z,99462.78
2017-09-24T16:58:52.575Z,99468.94
2017-09-24T17:01:20.072Z,99468.32
2017-09-24T17:03:47.543Z,99472.18
2017-09-24T17:06:15.067Z,99470.44
2017-09-24T17:08:42.555Z,99472.33
2017-09-24T17:11:10.074Z,99474.30
2017-09-24T17:13:37.550Z,99469.40
2017-09-24T17:16:05.064Z,99484.30
2017-09-24T17:18:32.561Z,99477.53
2017-09-24T17:21:00.095Z,99478.77
2017-09-24T17:23:27.581Z,99472.84
2017-09-24T17:25:55.257Z,99478.05
2017-09-24T17:28:22.743Z,99476.27
2017-09-24T17:30:50.217Z,99471.10
2017-09-24T17:33:17.704Z,99479.52
2017-09-24T17:35:45.193Z,99478.40
2017-09-24T17:38:12.685Z,99473.77
2017-09-24T17:40:40.140Z,99482.59
2017-09-24T17:43:07.691Z,99477.55
2017-09-24T17:45:35.163Z,99477.94
2017-09-24T17:48:05.454Z,99478.38
2017-09-24T17:50:32.977Z,99484.91
2017-09-24T17:53:00.484Z,99482.35
2017-09-24T17:55:27.945Z,99486.00
2017-09-24T17:57:55.454Z,99483.33
2017-09-24T18:00:22.914Z,99490.97
2017-09-24T18:02:50.433Z,99485.03
2017-09-24T18:05:17.937Z,99481.82
2017-09-24T18:07:45.406Z,99489.84
2017-09-24T18:10:12.906Z,99485.41
2017-09-24T18:12:40.377Z,99484.28
2017-09-24T18:15:07.910Z,99484.59
2017-09-24T18:17:35.385Z,99489.57
2017-09-24T18:20:02.905Z,99459.70
2017-09-24T18:22:30.367Z,99487.97
2017-09-24T18:24:57.887Z,99486.62
2017-09-24T18:27:25.371Z,99499.44
2017-09-24T18:29:52.869Z,99497.47
2017-09-24T18:32:20.382Z,99501.12
2017-09-24T18:34:48.626Z,99500.78
2017-09-24T18:37:16.144Z,99507.52
2017-09-24T18:39:44.659Z,99503.02
2017-09-24T18:42:12.180Z,99506.70
2017-09-24T18:44:39.660Z,99512.52
2017-09-24T18:47:07.954Z,99508.09
2017-09-24T18:49:35.437Z,99501.83
2017-09-24T18:52:02.935Z,99495.77
2017-09-24T18:54:30.423Z,99504.48
2017-09-24T18:56:57.957Z,99506.30
2017-09-24T18:59:25.469Z,99503.28
2017-09-24T19:01:53.003Z,99501.95
2017-09-24T19:04:20.504Z,99504.64
2017-09-24T19:06:48.091Z,99502.62
2017-09-24T19:09:15.582Z,99503.22
2017-09-24T19:11:43.078Z,99507.50
2017-09-24T19:14:10.569Z,99512.88
2017-09-24T19:16:38.071Z,99514.34
2017-09-24T19:19:05.595Z,99512.37
2017-09-24T19:21:33.971Z,99509.11
2017-09-24T19:24:01.514Z,99514.63
2017-09-24T19:26:29.029Z,99514.52
2017-09-24T19:28:56.584Z,99516.02
2017-09-24T19:31:24.100Z,99511.05
2017-09-24T19:33:51.644Z,99514.41
2017-09-24T19:36:19.958Z,99513.58
2017-09-24T19:38:47.476Z,99515.31
2017-09-24T19:41:14.985Z,99511.31
2017-09-24T19:43:42.496Z,99512.78
2017-09-24T19:46:10.168Z,99513.13
2017-09-24T19:48:37.667Z,99511.04
2017-09-24T19:51:05.240Z,99513.05
2017-09-24T19:53:32.727Z,99515.33
2017-09-24T19:56:00.254Z,99518.91
2017-09-24T19:58:27.737Z,99518.50
2017-09-24T20:00:55.274Z,99515.09
2017-09-24T20:03:22.748Z,99516.85
2017-09-24T20:05:50.277Z,99517.19
2017-09-24T20:08:17.759Z,99516.66
2017-09-24T20:10:45.284Z,99523.02
2017-09-24T20:13:12.785Z,99516.31
2017-09-24T20:15:40.305Z,99525.34
2017-09-24T20:18:07.805Z,99523.20
2017-09-24T20:20:35.290Z,99524.53
2017-09-24T20:23:02.800Z,99526.98
2017-09-24T20:25:30.262Z,99528.22
2017-09-24T20:27:57.783Z,99526.49
2017-09-24T20:30:25.261Z,99525.45
2017-09-24T20:32:53.267Z,99534.89
2017-09-24T20:35:20.734Z,99539.16
2017-09-24T20:37:48.221Z,99536.62
2017-09-24T20:40:15.698Z,99544.48
2017-09-24T20:42:43.314Z,99534.02
2017-09-24T20:45:10.837Z,99524.48
2017-09-24T20:47:38.329Z,99531.38
2017-09-24T20:50:05.825Z,99533.40
2017-09-24T20:52:33.309Z,99534.08
2017-09-24T20:55:00.806Z,99536.09
2017-09-24T20:57:28.264Z,99532.91
2017-09-24T20:59:55.727Z,99536.38
2017-09-24T21:02:23.243Z,99540.92
2017-09-24T21:04:50.887Z,99531.62
2017-09-24T21:07:18.379Z,99534.96
2017-09-24T21:09:45.866Z,99537.19
2017-09-24T21:12:13.345Z,99536.14
2017-09-24T21:14:40.818Z,99534.56
2017-09-24T21:17:08.325Z,99532.08
2017-09-24T21:19:35.818Z,99538.98
2017-09-24T21:22:03.291Z,99531.42
2017-09-24T21:24:30.783Z,99532.85
2017-09-24T21:26:58.284Z,99533.25
2017-09-24T21:29:25.781Z,99535.23
2017-09-24T21:31:53.282Z,99538.56
2017-09-24T21:34:20.771Z,99537.27
2017-09-24T21:36:48.217Z,99538.56
2017-09-24T21:39:15.721Z,99538.04
2017-09-24T21:41:43.212Z,99537.13
2017-09-24T21:44:10.682Z,99536.31
2017-09-24T21:46:38.191Z,99539.08
2017-09-24T21:49:05.683Z,99533.23
2017-09-24T21:51:33.144Z,99537.34
2017-09-24T21:54:00.656Z,99525.92
2017-09-24T21:56:28.118Z,99521.95
2017-09-24T21:58:55.780Z,99523.94
2017-09-24T22:01:23.258Z,99523.55
2017-09-24T22:03:50.726Z,99521.42
2017-09-24T22:06:18.257Z,99520.23
2017-09-24T22:08:45.774Z,99519.57
2017-09-24T22:11:13.269Z,99520.63
2017-09-24T22:13:40.727Z,99516.37
2017-09-24T22:16:08.219Z,99518.50
2017-09-24T22:18:35.735Z,99517.58
2017-09-24T22:21:03.201Z,99508.52
2017-09-24T22:23:30.694Z,99515.81
2017-09-24T22:25:58.280Z,99516.83
2017-09-24T22:28:25.741Z,99513.79
2017-09-24T22:30:53.214Z,99509.15
2017-09-24T22:33:20.707Z,99511.50
2017-09-24T22:35:48.196Z,99511.33
2017-09-24T22:38:15.676Z,99511.48
2017-09-24T22:40:43.153Z,99511.63
2017-09-24T22:43:10.658Z,99508.85
2017-09-24T22:45:38.145Z,99509.53
2017-09-24T22:48:05.660Z,99508.48
2017-09-24T22:50:33.140Z,99510.11
2017-09-24T22:53:00.676Z,99494.45
2017-09-24T22:55:28.140Z,99503.62
2017-09-24T22:57:55.612Z,99503.31
2017-09-24T23:00:23.141Z,99493.34
2017-09-24T23:02:50.602Z,99490.41
2017-09-24T23:05:18.085Z,99486.83
2017-09-24T23:07:45.635Z,99486.45
2017-09-24T23:10:13.294Z,99482.08
2017-09-24T23:12:40.815Z,99481.29
2017-09-24T23:15:08.291Z,99486.44
2017-09-24T23:17:35.761Z,99481.09
2017-09-24T23:20:03.237Z,99480.30
2017-09-24T23:22:30.731Z,99481.05
2017-09-24T23:24:58.210Z,99481.97
2017-09-24T23:27:25.694Z,99478.03
2017-09-24T23:29:53.154Z,99476.14
2017-09-24T23:32:20.752Z,99476.14
2017-09-24T23:34:48.208Z,99472.58
2017-09-24T23:37:15.668Z,99472.46
2017-09-24T23:39:43.167Z,99465.29
2017-09-24T23:42:10.649Z,99460.53
2017-09-24T23:44:38.148Z,99463.41
2017-09-24T23:47:05.622Z,99458.05
2017-09-24T23:49:33.140Z,99461.16
2017-09-24T23:52:00.628Z,99462.38
2017-09-24T23:54:28.189Z,99460.78
2017-09-24T23:56:55.654Z,99458.37
2017-09-24T23:59:23.134Z,99457.77
